Terminal Aerodrome Forecast
Issued by NWS Pueblo, CO

Current Version | Previous Version | Text Only | Print | Product List | Glossary On
Versions: 1 2 3 4 5 6 7 8 9 10 11 12 13 14 15 16 17 18 19 20 21 22 23 24 25 26 27 28 29 30 31 32 33 34 35 36 37 38 39 40 41 42 43 44 45 46 47 48 49 50
000
FTUS45 KPUB 271126
TAFCOS
TAF
KCOS 271126Z 2712/2812 03005KT P6SM SCT150
     FM271500 19006KT P6SM SCT150
     FM271700 20011KT P6SM FEW110 SCT200
     FM271900 24015G25KT P6SM SCT100 BKN150
     FM280100 30014KT P6SM SCT100 BKN150
     FM280400 33009KT P6SM SCT150
     FM280900 34014KT P6SM SCT150=

USA.gov is the U.S. government's official web portal to all federal, state and local government web resources and services.